Huvudsida
METAR-TAF:

METAR-TAF

Flygplatser :

Ajaccio, Frankrike

latitud: 41-55N, longitud: 008-48E, höjd: 6 m

Aktuellt väderrapport

Denna rapport gjordes för 16 minuter sedan, klockan 14:30 UTC
Vind 12 kt från syd
Temperatur 29°C
Fuktighet 62%
Tryck 1020 hPa
Sikt 10 km eller mer
Inga moln under 1 500 m eller inga cumulonimbus

METAR: LFKJ 261430Z AUTO 19012KT CAVOK 29/21 Q1020 NOSIG

Tid: 16:46 (14:46 UTC)

Väderprognos

Denna rapport gjordes för 46 minuter sedan, klockan 14:00 UTC
Prognos gäller från 26 kl. 15 UTC till 27 kl. 15 UTC
Vind 12 kt från syd/sydväst
Sikt 10 km eller mer
Inga moln under 1 500 m eller inga cumulonimbus
Blir
från 26 kl. 17 UTC till 26 kl. 20 UTC
Vind 4 kt från nordost
Blir
från 27 kl. 07 UTC till 27 kl. 10 UTC
Vind 12 kt från sydväst

TAF: LFKJ 261400Z 2615/2715 20012KT CAVOK BECMG 2617/2620 04004KT BECMG 2707/2710 22012KT

Aktuella väderrapporter och prognoser från 4000 flygplatser (METAR- och TAF-rapporter).

De tillgängliga stationerna syns som gula och röda prickar på kartan.

För musen över prickarna för att se namnen på stationerna.

Klicka sedan för att få väderrapporter och prognoser.

För att ändra kartan: Klicka på de gröna knapparna med ett svart kors på för att zooma in; den gröna knappen med ett streck på för att zooma ut; eller på de gröna pilarna för angränsande kartor.


METAR-TAF: